sensor_id;sensor_type;location;lat;lon;timestamp;pressure;altitude;pressure_sealevel;temperature;humidity
3598;BME280;1813;52.016;8.714;2023-01-05T00:00:38;-16261.94;;;-139.71;79.38
3598;BME280;1813;52.016;8.714;2023-01-05T00:03:12;-16261.94;;;-139.71;79.21
3598;BME280;1813;52.016;8.714;2023-01-05T00:05:49;-16261.94;;;-139.71;78.95
3598;BME280;1813;52.016;8.714;2023-01-05T00:08:22;-16261.94;;;-139.71;78.83
3598;BME280;1813;52.016;8.714;2023-01-05T00:10:56;-16261.94;;;-139.71;78.29
3598;BME280;1813;52.016;8.714;2023-01-05T00:13:43;-16261.94;;;-139.71;78.06
3598;BME280;1813;52.016;8.714;2023-01-05T00:16:29;-16261.94;;;-139.71;78.01
3598;BME280;1813;52.016;8.714;2023-01-05T00:19:15;-16261.94;;;-139.71;78.11
3598;BME280;1813;52.016;8.714;2023-01-05T00:22:09;-16261.94;;;-139.71;77.85
3598;BME280;1813;52.016;8.714;2023-01-05T00:24:57;-16261.94;;;-139.71;77.76
3598;BME280;1813;52.016;8.714;2023-01-05T00:27:31;-16261.94;;;-139.71;77.36
3598;BME280;1813;52.016;8.714;2023-01-05T00:30:07;-16261.94;;;-139.71;77.24
3598;BME280;1813;52.016;8.714;2023-01-05T00:32:42;-16261.94;;;-139.71;76.99
3598;BME280;1813;52.016;8.714;2023-01-05T00:35:16;-16261.94;;;-139.71;76.44
3598;BME280;1813;52.016;8.714;2023-01-05T00:37:53;-16261.94;;;-139.71;76.48
3598;BME280;1813;52.016;8.714;2023-01-05T00:40:27;-16261.94;;;-139.71;76.65
3598;BME280;1813;52.016;8.714;2023-01-05T00:43:01;-16261.94;;;-139.71;76.85
3598;BME280;1813;52.016;8.714;2023-01-05T00:45:35;-16261.94;;;-139.71;77.41
3598;BME280;1813;52.016;8.714;2023-01-05T00:48:09;-16261.94;;;-139.71;77.56
3598;BME280;1813;52.016;8.714;2023-01-05T00:50:45;-16261.94;;;-139.71;77.79
3598;BME280;1813;52.016;8.714;2023-01-05T00:53:21;-16261.94;;;-139.71;77.47
3598;BME280;1813;52.016;8.714;2023-01-05T00:55:56;-16261.94;;;-139.71;77.27
3598;BME280;1813;52.016;8.714;2023-01-05T00:58:30;-16261.94;;;-139.71;76.59
3598;BME280;1813;52.016;8.714;2023-01-05T01:01:08;-16261.94;;;-139.71;76.38
3598;BME280;1813;52.016;8.714;2023-01-05T01:03:42;-16261.94;;;-139.71;76.00
3598;BME280;1813;52.016;8.714;2023-01-05T01:06:16;-16261.94;;;-139.71;75.66
3598;BME280;1813;52.016;8.714;2023-01-05T01:08:52;-16261.94;;;-139.71;75.28
3598;BME280;1813;52.016;8.714;2023-01-05T01:11:26;-16261.94;;;-139.71;75.12
3598;BME280;1813;52.016;8.714;2023-01-05T01:14:00;-16261.94;;;-139.71;74.75
3598;BME280;1813;52.016;8.714;2023-01-05T01:16:34;-16261.94;;;-139.71;74.50
3598;BME280;1813;52.016;8.714;2023-01-05T01:19:08;-16261.94;;;-139.71;74.59
3598;BME280;1813;52.016;8.714;2023-01-05T01:21:45;-16261.94;;;-139.71;74.55
3598;BME280;1813;52.016;8.714;2023-01-05T01:24:23;-16261.94;;;-139.71;74.54
3598;BME280;1813;52.016;8.714;2023-01-05T01:26:58;-16261.94;;;-139.71;74.96
3598;BME280;1813;52.016;8.714;2023-01-05T01:29:31;-16261.94;;;-139.71;75.22
3598;BME280;1813;52.016;8.714;2023-01-05T01:32:06;-16261.94;;;-139.71;75.48
3598;BME280;1813;52.016;8.714;2023-01-05T01:34:39;-16261.94;;;-139.71;75.90
3598;BME280;1813;52.016;8.714;2023-01-05T01:37:14;-16261.94;;;-139.71;76.43
3598;BME280;1813;52.016;8.714;2023-01-05T01:39:56;-16261.94;;;-139.71;76.74
3598;BME280;1813;52.016;8.714;2023-01-05T01:42:30;-16261.94;;;-139.71;76.88
3598;BME280;1813;52.016;8.714;2023-01-05T01:45:14;-16261.94;;;-139.71;77.18
3598;BME280;1813;52.016;8.714;2023-01-05T01:47:52;-16261.94;;;-139.71;77.29
3598;BME280;1813;52.016;8.714;2023-01-05T01:50:31;-16261.94;;;-139.71;77.32
3598;BME280;1813;52.016;8.714;2023-01-05T01:53:09;-16261.94;;;-139.71;77.42
3598;BME280;1813;52.016;8.714;2023-01-05T01:55:47;-16261.94;;;-139.71;77.41
3598;BME280;1813;52.016;8.714;2023-01-05T01:58:24;-16261.94;;;-139.71;77.28
3598;BME280;1813;52.016;8.714;2023-01-05T02:00:58;-16261.94;;;-139.71;77.21
3598;BME280;1813;52.016;8.714;2023-01-05T02:03:32;-16261.94;;;-139.71;77.07
3598;BME280;1813;52.016;8.714;2023-01-05T02:06:06;-16261.94;;;-139.71;76.97
3598;BME280;1813;52.016;8.714;2023-01-05T02:08:41;-16261.94;;;-139.71;76.90
3598;BME280;1813;52.016;8.714;2023-01-05T02:11:34;-16261.94;;;-139.71;76.84
3598;BME280;1813;52.016;8.714;2023-01-05T02:14:25;-16261.94;;;-139.71;76.68
3598;BME280;1813;52.016;8.714;2023-01-05T02:17:09;-16261.94;;;-139.71;76.65
3598;BME280;1813;52.016;8.714;2023-01-05T02:26:20;-16261.94;;;-139.71;76.35
3598;BME280;1813;52.016;8.714;2023-01-05T02:29:31;-16261.94;;;-139.71;76.14
3598;BME280;1813;52.016;8.714;2023-01-05T02:32:16;-16261.94;;;-139.71;76.08
3598;BME280;1813;52.016;8.714;2023-01-05T02:35:00;-16261.94;;;-139.71;75.95
3598;BME280;1813;52.016;8.714;2023-01-05T02:37:40;-16261.94;;;-139.71;76.08
3598;BME280;1813;52.016;8.714;2023-01-05T02:40:21;-16261.94;;;-139.71;76.03
3598;BME280;1813;52.016;8.714;2023-01-05T02:42:58;-16261.94;;;-139.71;76.08
3598;BME280;1813;52.016;8.714;2023-01-05T02:45:34;-16261.94;;;-139.71;75.77
3598;BME280;1813;52.016;8.714;2023-01-05T02:48:11;-16261.94;;;-139.71;75.67
3598;BME280;1813;52.016;8.714;2023-01-05T02:50:49;-16261.94;;;-139.71;75.75
3598;BME280;1813;52.016;8.714;2023-01-05T02:53:32;-16261.94;;;-139.71;75.62
3598;BME280;1813;52.016;8.714;2023-01-05T02:56:14;-16261.94;;;-139.71;75.55
3598;BME280;1813;52.016;8.714;2023-01-05T02:58:53;-16261.94;;;-139.71;75.56
3598;BME280;1813;52.016;8.714;2023-01-05T03:01:32;-16261.94;;;-139.71;75.95
3598;BME280;1813;52.016;8.714;2023-01-05T03:04:15;-16261.94;;;-139.71;76.15
3598;BME280;1813;52.016;8.714;2023-01-05T03:06:54;-16261.94;;;-139.71;76.21
3598;BME280;1813;52.016;8.714;2023-01-05T03:09:35;-16261.94;;;-139.71;76.63
3598;BME280;1813;52.016;8.714;2023-01-05T03:12:21;-16261.94;;;-139.71;76.82
3598;BME280;1813;52.016;8.714;2023-01-05T03:15:28;-16261.94;;;-139.71;77.10
3598;BME280;1813;52.016;8.714;2023-01-05T03:18:06;-16261.94;;;-139.71;77.22
3598;BME280;1813;52.016;8.714;2023-01-05T03:20:50;-16261.94;;;-139.71;77.41
3598;BME280;1813;52.016;8.714;2023-01-05T03:23:25;-16261.94;;;-139.71;77.74
3598;BME280;1813;52.016;8.714;2023-01-05T03:26:11;-16261.94;;;-139.71;78.07
3598;BME280;1813;52.016;8.714;2023-01-05T03:29:00;-16261.94;;;-139.71;78.23
3598;BME280;1813;52.016;8.714;2023-01-05T03:31:51;-16261.94;;;-139.71;78.46
3598;BME280;1813;52.016;8.714;2023-01-05T03:34:45;-16261.94;;;-139.71;78.66
3598;BME280;1813;52.016;8.714;2023-01-05T03:37:44;-16261.94;;;-139.71;78.92
3598;BME280;1813;52.016;8.714;2023-01-05T03:40:23;-16261.94;;;-139.71;79.13
3598;BME280;1813;52.016;8.714;2023-01-05T03:42:59;-16261.94;;;-139.71;79.25
3598;BME280;1813;52.016;8.714;2023-01-05T03:45:37;-16261.94;;;-139.71;79.45
3598;BME280;1813;52.016;8.714;2023-01-05T03:48:14;-16261.94;;;-139.71;79.68
3598;BME280;1813;52.016;8.714;2023-01-05T03:50:48;-16261.94;;;-139.71;79.83
3598;BME280;1813;52.016;8.714;2023-01-05T03:53:27;-16261.94;;;-139.71;80.12
3598;BME280;1813;52.016;8.714;2023-01-05T03:56:01;-16261.94;;;-139.71;80.30
3598;BME280;1813;52.016;8.714;2023-01-05T03:58:35;-16261.94;;;-139.71;80.49
3598;BME280;1813;52.016;8.714;2023-01-05T04:01:08;-16261.94;;;-139.71;80.42
3598;BME280;1813;52.016;8.714;2023-01-05T04:03:43;-16261.94;;;-139.71;80.52
3598;BME280;1813;52.016;8.714;2023-01-05T04:06:17;-16261.94;;;-139.71;80.47
3598;BME280;1813;52.016;8.714;2023-01-05T04:08:55;-16261.94;;;-139.71;80.57
3598;BME280;1813;52.016;8.714;2023-01-05T04:11:29;-16261.94;;;-139.71;80.48
3598;BME280;1813;52.016;8.714;2023-01-05T04:14:08;-16261.94;;;-139.71;80.49
3598;BME280;1813;52.016;8.714;2023-01-05T04:16:42;-16261.94;;;-139.71;80.22
3598;BME280;1813;52.016;8.714;2023-01-05T04:19:22;-16261.94;;;-139.71;80.12
3598;BME280;1813;52.016;8.714;2023-01-05T04:21:58;-16261.94;;;-139.71;80.03
3598;BME280;1813;52.016;8.714;2023-01-05T04:24:37;-16261.94;;;-139.71;79.96
3598;BME280;1813;52.016;8.714;2023-01-05T04:27:10;-16261.94;;;-139.71;79.73
3598;BME280;1813;52.016;8.714;2023-01-05T04:29:45;-16261.94;;;-139.71;79.77
3598;BME280;1813;52.016;8.714;2023-01-05T04:32:18;-16261.94;;;-139.71;79.65
3598;BME280;1813;52.016;8.714;2023-01-05T04:34:52;-16261.94;;;-139.71;79.66
3598;BME280;1813;52.016;8.714;2023-01-05T04:37:26;-16261.94;;;-139.71;79.68
3598;BME280;1813;52.016;8.714;2023-01-05T04:40:04;-16261.94;;;-139.71;79.65
3598;BME280;1813;52.016;8.714;2023-01-05T04:42:46;-16261.94;;;-139.71;79.70
3598;BME280;1813;52.016;8.714;2023-01-05T04:45:20;-16261.94;;;-139.71;79.77
3598;BME280;1813;52.016;8.714;2023-01-05T04:47:54;-16261.94;;;-139.71;79.73
3598;BME280;1813;52.016;8.714;2023-01-05T04:50:29;-16261.94;;;-139.71;79.75
3598;BME280;1813;52.016;8.714;2023-01-05T04:53:04;-16261.94;;;-139.71;79.67
3598;BME280;1813;52.016;8.714;2023-01-05T04:55:44;-16261.94;;;-139.71;79.38
3598;BME280;1813;52.016;8.714;2023-01-05T04:58:18;-16261.94;;;-139.71;79.45
3598;BME280;1813;52.016;8.714;2023-01-05T05:00:53;-16261.94;;;-139.71;79.30
3598;BME280;1813;52.016;8.714;2023-01-05T05:03:27;-16261.94;;;-139.71;78.95
3598;BME280;1813;52.016;8.714;2023-01-05T05:06:03;-16261.94;;;-139.71;78.88
3598;BME280;1813;52.016;8.714;2023-01-05T05:08:37;-16261.94;;;-139.71;78.76
3598;BME280;1813;52.016;8.714;2023-01-05T05:11:15;-16261.94;;;-139.71;78.58
3598;BME280;1813;52.016;8.714;2023-01-05T05:13:52;-16261.94;;;-139.71;78.43
3598;BME280;1813;52.016;8.714;2023-01-05T05:16:27;-16261.94;;;-139.71;78.34
3598;BME280;1813;52.016;8.714;2023-01-05T05:19:02;-16261.94;;;-139.71;78.29
3598;BME280;1813;52.016;8.714;2023-01-05T05:21:37;-16261.94;;;-139.71;78.29
3598;BME280;1813;52.016;8.714;2023-01-05T05:24:11;-16261.94;;;-139.71;78.43
3598;BME280;1813;52.016;8.714;2023-01-05T05:26:50;-16261.94;;;-139.71;78.43
3598;BME280;1813;52.016;8.714;2023-01-05T05:29:27;-16261.94;;;-139.71;78.49
3598;BME280;1813;52.016;8.714;2023-01-05T05:32:01;-16261.94;;;-139.71;78.63
3598;BME280;1813;52.016;8.714;2023-01-05T05:34:35;-16261.94;;;-139.71;78.90
3598;BME280;1813;52.016;8.714;2023-01-05T05:37:09;-16261.94;;;-139.71;79.00
3598;BME280;1813;52.016;8.714;2023-01-05T05:39:43;-16261.94;;;-139.71;79.10
3598;BME280;1813;52.016;8.714;2023-01-05T05:42:19;-16261.94;;;-139.71;79.25
3598;BME280;1813;52.016;8.714;2023-01-05T05:44:53;-16261.94;;;-139.71;79.09
3598;BME280;1813;52.016;8.714;2023-01-05T05:47:27;-16261.94;;;-139.71;79.10
3598;BME280;1813;52.016;8.714;2023-01-05T05:50:01;-16261.94;;;-139.71;79.32
3598;BME280;1813;52.016;8.714;2023-01-05T05:52:35;-16261.94;;;-139.71;79.07
3598;BME280;1813;52.016;8.714;2023-01-05T05:55:09;-16261.94;;;-139.71;79.08
3598;BME280;1813;52.016;8.714;2023-01-05T05:57:45;-16261.94;;;-139.71;78.92
3598;BME280;1813;52.016;8.714;2023-01-05T06:00:19;-16261.94;;;-139.71;78.80
3598;BME280;1813;52.016;8.714;2023-01-05T06:02:53;-16261.94;;;-139.71;78.68
3598;BME280;1813;52.016;8.714;2023-01-05T06:05:27;-16261.94;;;-139.71;78.58
3598;BME280;1813;52.016;8.714;2023-01-05T06:08:01;-16261.94;;;-139.71;78.54
3598;BME280;1813;52.016;8.714;2023-01-05T06:10:35;-16261.94;;;-139.71;78.51
3598;BME280;1813;52.016;8.714;2023-01-05T06:13:12;-16261.94;;;-139.71;78.30
3598;BME280;1813;52.016;8.714;2023-01-05T06:15:46;-16261.94;;;-139.71;78.35
3598;BME280;1813;52.016;8.714;2023-01-05T06:18:19;-16261.94;;;-139.71;78.22
3598;BME280;1813;52.016;8.714;2023-01-05T06:20:54;-16261.94;;;-139.71;78.25
3598;BME280;1813;52.016;8.714;2023-01-05T06:23:28;-16261.94;;;-139.71;78.26
3598;BME280;1813;52.016;8.714;2023-01-05T06:26:01;-16261.94;;;-139.71;78.50
3598;BME280;1813;52.016;8.714;2023-01-05T06:28:38;-16261.94;;;-139.71;78.42
3598;BME280;1813;52.016;8.714;2023-01-05T06:31:12;-16261.94;;;-139.71;78.33
3598;BME280;1813;52.016;8.714;2023-01-05T06:33:46;-16261.94;;;-139.71;78.23
3598;BME280;1813;52.016;8.714;2023-01-05T06:36:20;-16261.94;;;-139.71;78.35
3598;BME280;1813;52.016;8.714;2023-01-05T06:38:53;-16261.94;;;-139.71;78.48
3598;BME280;1813;52.016;8.714;2023-01-05T06:41:27;-16261.94;;;-139.71;78.52
3598;BME280;1813;52.016;8.714;2023-01-05T06:44:04;-16261.94;;;-139.71;78.47
3598;BME280;1813;52.016;8.714;2023-01-05T06:46:39;-16261.94;;;-139.71;78.90
3598;BME280;1813;52.016;8.714;2023-01-05T06:49:13;-16261.94;;;-139.71;79.10
3598;BME280;1813;52.016;8.714;2023-01-05T06:51:47;-16261.94;;;-139.71;79.28
3598;BME280;1813;52.016;8.714;2023-01-05T06:54:21;-16261.94;;;-139.71;79.53
3598;BME280;1813;52.016;8.714;2023-01-05T06:56:55;-16261.94;;;-139.71;79.64
3598;BME280;1813;52.016;8.714;2023-01-05T06:59:31;-16261.94;;;-139.71;79.77
3598;BME280;1813;52.016;8.714;2023-01-05T07:02:05;-16261.94;;;-139.71;79.99
3598;BME280;1813;52.016;8.714;2023-01-05T07:04:39;-16261.94;;;-139.71;80.03
3598;BME280;1813;52.016;8.714;2023-01-05T07:07:14;-16261.94;;;-139.71;80.13
3598;BME280;1813;52.016;8.714;2023-01-05T07:09:48;-16261.94;;;-139.71;80.28
3598;BME280;1813;52.016;8.714;2023-01-05T07:12:22;-16261.94;;;-139.71;80.23
3598;BME280;1813;52.016;8.714;2023-01-05T07:14:59;-16261.94;;;-139.71;80.34
3598;BME280;1813;52.016;8.714;2023-01-05T07:17:34;-16261.94;;;-139.71;80.45
3598;BME280;1813;52.016;8.714;2023-01-05T07:20:09;-16261.94;;;-139.71;80.46
3598;BME280;1813;52.016;8.714;2023-01-05T07:22:43;-16261.94;;;-139.71;80.47
3598;BME280;1813;52.016;8.714;2023-01-05T07:25:17;-16261.94;;;-139.71;80.50
3598;BME280;1813;52.016;8.714;2023-01-05T07:27:51;-16261.94;;;-139.71;80.48
3598;BME280;1813;52.016;8.714;2023-01-05T07:30:27;-16261.94;;;-139.71;80.13
3598;BME280;1813;52.016;8.714;2023-01-05T07:33:01;-16261.94;;;-139.71;79.82
3598;BME280;1813;52.016;8.714;2023-01-05T07:35:35;-16261.94;;;-139.71;79.84
3598;BME280;1813;52.016;8.714;2023-01-05T07:38:09;-16261.94;;;-139.71;79.82
3598;BME280;1813;52.016;8.714;2023-01-05T07:40:43;-16261.94;;;-139.71;79.78
3598;BME280;1813;52.016;8.714;2023-01-05T07:43:17;-16261.94;;;-139.71;79.92
3598;BME280;1813;52.016;8.714;2023-01-05T07:45:55;-16261.94;;;-139.71;79.98
3598;BME280;1813;52.016;8.714;2023-01-05T07:48:30;-16261.94;;;-139.71;80.41
3598;BME280;1813;52.016;8.714;2023-01-05T07:51:04;-16261.94;;;-139.71;80.52
3598;BME280;1813;52.016;8.714;2023-01-05T07:53:38;-16261.94;;;-139.71;80.81
3598;BME280;1813;52.016;8.714;2023-01-05T07:56:13;-16261.94;;;-139.71;81.24
3598;BME280;1813;52.016;8.714;2023-01-05T07:58:47;-16261.94;;;-139.71;81.40
3598;BME280;1813;52.016;8.714;2023-01-05T08:01:23;-16261.94;;;-139.71;81.75
3598;BME280;1813;52.016;8.714;2023-01-05T08:03:57;-16261.94;;;-139.71;82.09
3598;BME280;1813;52.016;8.714;2023-01-05T08:06:31;-16261.94;;;-139.71;82.19
3598;BME280;1813;52.016;8.714;2023-01-05T08:09:06;-16261.94;;;-139.71;82.27
3598;BME280;1813;52.016;8.714;2023-01-05T08:11:52;-16261.94;;;-139.71;82.27
3598;BME280;1813;52.016;8.714;2023-01-05T08:14:26;-16261.94;;;-139.71;82.28
3598;BME280;1813;52.016;8.714;2023-01-05T08:17:02;-16261.94;;;-139.71;82.28
3598;BME280;1813;52.016;8.714;2023-01-05T08:19:36;-16261.94;;;-139.71;82.23
3598;BME280;1813;52.016;8.714;2023-01-05T08:22:10;-16261.94;;;-139.71;82.11
3598;BME280;1813;52.016;8.714;2023-01-05T08:24:44;-16261.94;;;-139.71;82.16
3598;BME280;1813;52.016;8.714;2023-01-05T08:27:18;-16261.94;;;-139.71;82.07
3598;BME280;1813;52.016;8.714;2023-01-05T08:29:52;-16261.94;;;-139.71;82.05
3598;BME280;1813;52.016;8.714;2023-01-05T08:32:28;-16261.94;;;-139.71;82.15
3598;BME280;1813;52.016;8.714;2023-01-05T08:35:03;-16261.94;;;-139.71;82.34
3598;BME280;1813;52.016;8.714;2023-01-05T08:37:36;-16261.94;;;-139.71;82.56
3598;BME280;1813;52.016;8.714;2023-01-05T08:40:11;-16261.94;;;-139.71;82.58
3598;BME280;1813;52.016;8.714;2023-01-05T08:42:45;-16261.94;;;-139.71;82.62
3598;BME280;1813;52.016;8.714;2023-01-05T08:45:20;-16261.94;;;-139.71;82.72
3598;BME280;1813;52.016;8.714;2023-01-05T08:47:56;-16261.94;;;-139.71;82.94
3598;BME280;1813;52.016;8.714;2023-01-05T08:50:30;-16261.94;;;-139.71;82.96
3598;BME280;1813;52.016;8.714;2023-01-05T08:53:04;-16261.94;;;-139.71;83.29
3598;BME280;1813;52.016;8.714;2023-01-05T08:55:38;-16261.94;;;-139.71;83.07
3598;BME280;1813;52.016;8.714;2023-01-05T08:58:11;-16261.94;;;-139.71;83.31
3598;BME280;1813;52.016;8.714;2023-01-05T09:00:45;-16261.94;;;-139.71;83.06
3598;BME280;1813;52.016;8.714;2023-01-05T09:03:22;-16261.94;;;-139.71;83.08
3598;BME280;1813;52.016;8.714;2023-01-05T09:05:56;-16261.94;;;-139.71;82.66
3598;BME280;1813;52.016;8.714;2023-01-05T09:08:32;-16261.94;;;-139.71;82.39
3598;BME280;1813;52.016;8.714;2023-01-05T09:11:07;-16261.94;;;-139.71;82.07
3598;BME280;1813;52.016;8.714;2023-01-05T09:13:44;-16261.94;;;-139.71;81.30
3598;BME280;1813;52.016;8.714;2023-01-05T09:16:20;-16261.94;;;-139.71;81.04
3598;BME280;1813;52.016;8.714;2023-01-05T09:18:59;-16261.94;;;-139.71;80.63
3598;BME280;1813;52.016;8.714;2023-01-05T09:21:34;-16261.94;;;-139.71;80.49
3598;BME280;1813;52.016;8.714;2023-01-05T09:24:10;-16261.94;;;-139.71;80.24
3598;BME280;1813;52.016;8.714;2023-01-05T09:26:45;-16261.94;;;-139.71;80.32
3598;BME280;1813;52.016;8.714;2023-01-05T09:29:18;-16261.94;;;-139.71;80.28
3598;BME280;1813;52.016;8.714;2023-01-05T09:31:52;-16261.94;;;-139.71;80.23
3598;BME280;1813;52.016;8.714;2023-01-05T09:34:29;-16261.94;;;-139.71;80.33
3598;BME280;1813;52.016;8.714;2023-01-05T09:37:03;-16261.94;;;-139.71;80.47
3598;BME280;1813;52.016;8.714;2023-01-05T09:39:37;-16261.94;;;-139.71;80.62
3598;BME280;1813;52.016;8.714;2023-01-05T09:42:13;-16261.94;;;-139.71;80.49
3598;BME280;1813;52.016;8.714;2023-01-05T09:44:50;-16261.94;;;-139.71;80.52
3598;BME280;1813;52.016;8.714;2023-01-05T09:47:29;-16261.94;;;-139.71;80.42
3598;BME280;1813;52.016;8.714;2023-01-05T09:50:17;-16261.94;;;-139.71;80.49
3598;BME280;1813;52.016;8.714;2023-01-05T09:52:53;-16261.94;;;-139.71;80.30
3598;BME280;1813;52.016;8.714;2023-01-05T09:55:30;-16261.94;;;-139.71;80.27
3598;BME280;1813;52.016;8.714;2023-01-05T09:58:09;-16261.94;;;-139.71;80.29
3598;BME280;1813;52.016;8.714;2023-01-05T10:00:49;-16261.94;;;-139.71;80.38
3598;BME280;1813;52.016;8.714;2023-01-05T10:03:30;-16261.94;;;-139.71;80.57
3598;BME280;1813;52.016;8.714;2023-01-05T10:06:11;-16261.94;;;-139.71;80.72
3598;BME280;1813;52.016;8.714;2023-01-05T10:08:48;-16261.94;;;-139.71;81.29
3598;BME280;1813;52.016;8.714;2023-01-05T10:11:30;-16261.94;;;-139.71;81.69
3598;BME280;1813;52.016;8.714;2023-01-05T10:14:25;-16261.94;;;-139.71;81.98
3598;BME280;1813;52.016;8.714;2023-01-05T10:17:01;-16261.94;;;-139.71;82.28
3598;BME280;1813;52.016;8.714;2023-01-05T10:19:35;-16261.94;;;-139.71;82.66
3598;BME280;1813;52.016;8.714;2023-01-05T10:22:22;-16261.94;;;-139.71;82.86
3598;BME280;1813;52.016;8.714;2023-01-05T10:25:04;-16261.94;;;-139.71;83.30
3598;BME280;1813;52.016;8.714;2023-01-05T10:27:43;-16261.94;;;-139.71;83.54
3598;BME280;1813;52.016;8.714;2023-01-05T10:30:23;-16261.94;;;-139.71;83.93
3598;BME280;1813;52.016;8.714;2023-01-05T10:32:59;-16261.94;;;-139.71;84.40
3598;BME280;1813;52.016;8.714;2023-01-05T10:35:46;-16261.94;;;-139.71;84.59
3598;BME280;1813;52.016;8.714;2023-01-05T10:38:39;-16261.94;;;-139.71;84.82
3598;BME280;1813;52.016;8.714;2023-01-05T10:41:22;-16261.94;;;-139.71;84.86
3598;BME280;1813;52.016;8.714;2023-01-05T10:44:23;-16261.94;;;-139.71;84.77
3598;BME280;1813;52.016;8.714;2023-01-05T10:47:06;-16261.94;;;-139.71;84.82
3598;BME280;1813;52.016;8.714;2023-01-05T10:49:42;-16261.94;;;-139.71;84.57
3598;BME280;1813;52.016;8.714;2023-01-05T10:52:20;-16261.94;;;-139.71;84.63
3598;BME280;1813;52.016;8.714;2023-01-05T10:54:58;-16261.94;;;-139.71;84.31
3598;BME280;1813;52.016;8.714;2023-01-05T10:57:38;-16261.94;;;-139.71;84.11
3598;BME280;1813;52.016;8.714;2023-01-05T11:00:14;-16261.94;;;-139.71;83.66
3598;BME280;1813;52.016;8.714;2023-01-05T11:02:51;-16261.94;;;-139.71;83.37
3598;BME280;1813;52.016;8.714;2023-01-05T11:05:35;-16261.94;;;-139.71;82.89
3598;BME280;1813;52.016;8.714;2023-01-05T11:08:14;-16261.94;;;-139.71;82.81
3598;BME280;1813;52.016;8.714;2023-01-05T11:10:55;-16261.94;;;-139.71;82.36
3598;BME280;1813;52.016;8.714;2023-01-05T11:13:32;-16261.94;;;-139.71;81.82
3598;BME280;1813;52.016;8.714;2023-01-05T11:16:09;-16261.94;;;-139.71;81.49
3598;BME280;1813;52.016;8.714;2023-01-05T11:18:47;-16261.94;;;-139.71;80.85
3598;BME280;1813;52.016;8.714;2023-01-05T11:21:23;-16261.94;;;-139.71;80.40
3598;BME280;1813;52.016;8.714;2023-01-05T11:23:58;-16261.94;;;-139.71;79.98
3598;BME280;1813;52.016;8.714;2023-01-05T11:26:36;-16261.94;;;-139.71;79.50
3598;BME280;1813;52.016;8.714;2023-01-05T11:29:12;-16261.94;;;-139.71;79.28
3598;BME280;1813;52.016;8.714;2023-01-05T11:31:50;-16261.94;;;-139.71;79.02
3598;BME280;1813;52.016;8.714;2023-01-05T11:34:34;-16261.94;;;-139.71;78.95
3598;BME280;1813;52.016;8.714;2023-01-05T11:37:22;-16261.94;;;-139.71;78.71
3598;BME280;1813;52.016;8.714;2023-01-05T11:39:58;-16261.94;;;-139.71;78.70
3598;BME280;1813;52.016;8.714;2023-01-05T11:42:36;-16261.94;;;-139.71;78.59
3598;BME280;1813;52.016;8.714;2023-01-05T11:45:18;-16261.94;;;-139.71;78.51
3598;BME280;1813;52.016;8.714;2023-01-05T11:47:56;-16261.94;;;-139.71;78.74
3598;BME280;1813;52.016;8.714;2023-01-05T11:50:37;-16261.94;;;-139.71;78.78
3598;BME280;1813;52.016;8.714;2023-01-05T11:53:35;-16261.94;;;-139.71;78.51
3598;BME280;1813;52.016;8.714;2023-01-05T11:56:17;-16261.94;;;-139.71;78.11
3598;BME280;1813;52.016;8.714;2023-01-05T11:58:56;-16261.94;;;-139.71;77.74
3598;BME280;1813;52.016;8.714;2023-01-05T12:01:56;-16261.94;;;-139.71;77.41
3598;BME280;1813;52.016;8.714;2023-01-05T12:04:59;-16261.94;;;-139.71;76.97
3598;BME280;1813;52.016;8.714;2023-01-05T12:07:39;-16261.94;;;-139.71;76.20
3598;BME280;1813;52.016;8.714;2023-01-05T12:10:28;-16261.94;;;-139.71;76.41
3598;BME280;1813;52.016;8.714;2023-01-05T12:13:21;-16261.94;;;-139.71;76.76
3598;BME280;1813;52.016;8.714;2023-01-05T12:16:14;-16261.94;;;-139.71;77.57
3598;BME280;1813;52.016;8.714;2023-01-05T12:19:06;-16261.94;;;-139.71;78.19
3598;BME280;1813;52.016;8.714;2023-01-05T12:21:47;-16261.94;;;-139.71;78.88
3598;BME280;1813;52.016;8.714;2023-01-05T12:24:45;-16261.94;;;-139.71;79.16
3598;BME280;1813;52.016;8.714;2023-01-05T12:27:34;-16261.94;;;-139.71;79.67
3598;BME280;1813;52.016;8.714;2023-01-05T12:30:23;-16261.94;;;-139.71;79.82
3598;BME280;1813;52.016;8.714;2023-01-05T12:33:17;-16261.94;;;-139.71;80.38
3598;BME280;1813;52.016;8.714;2023-01-05T12:36:22;-16261.94;;;-139.71;80.60
3598;BME280;1813;52.016;8.714;2023-01-05T12:39:08;-16261.94;;;-139.71;80.19
3598;BME280;1813;52.016;8.714;2023-01-05T12:41:57;-16261.94;;;-139.71;80.17
3598;BME280;1813;52.016;8.714;2023-01-05T12:44:51;-16261.94;;;-139.71;79.84
3598;BME280;1813;52.016;8.714;2023-01-05T12:47:41;-16261.94;;;-139.71;79.89
3598;BME280;1813;52.016;8.714;2023-01-05T12:50:27;-16261.94;;;-139.71;79.93
3598;BME280;1813;52.016;8.714;2023-01-05T12:53:13;-16261.94;;;-139.71;79.84
3598;BME280;1813;52.016;8.714;2023-01-05T12:55:54;-16261.94;;;-139.71;79.40
3598;BME280;1813;52.016;8.714;2023-01-05T12:58:31;-16261.94;;;-139.71;79.26
3598;BME280;1813;52.016;8.714;2023-01-05T13:01:18;-16261.94;;;-139.71;79.23
3598;BME280;1813;52.016;8.714;2023-01-05T13:03:57;-16261.94;;;-139.71;79.06
3598;BME280;1813;52.016;8.714;2023-01-05T13:06:36;-16261.94;;;-139.71;79.05
3598;BME280;1813;52.016;8.714;2023-01-05T13:09:16;-16261.94;;;-139.71;79.13
3598;BME280;1813;52.016;8.714;2023-01-05T13:11:55;-16261.94;;;-139.71;78.88
3598;BME280;1813;52.016;8.714;2023-01-05T13:14:33;-16261.94;;;-139.71;78.75
3598;BME280;1813;52.016;8.714;2023-01-05T13:17:13;-16261.94;;;-139.71;78.63
3598;BME280;1813;52.016;8.714;2023-01-05T13:19:55;-16261.94;;;-139.71;78.58
3598;BME280;1813;52.016;8.714;2023-01-05T13:22:38;-16261.94;;;-139.71;78.47
3598;BME280;1813;52.016;8.714;2023-01-05T13:25:16;-16261.94;;;-139.71;78.49
3598;BME280;1813;52.016;8.714;2023-01-05T13:27:50;-16261.94;;;-139.71;78.75
3598;BME280;1813;52.016;8.714;2023-01-05T13:30:28;-16261.94;;;-139.71;78.98
3598;BME280;1813;52.016;8.714;2023-01-05T13:33:39;-16261.94;;;-139.71;79.28
3598;BME280;1813;52.016;8.714;2023-01-05T13:36:26;-16261.94;;;-139.71;79.22
3598;BME280;1813;52.016;8.714;2023-01-05T13:42:38;-16261.94;;;-139.71;79.68
3598;BME280;1813;52.016;8.714;2023-01-05T13:45:32;-16261.94;;;-139.71;79.43
3598;BME280;1813;52.016;8.714;2023-01-05T13:48:29;-16261.94;;;-139.71;79.30
3598;BME280;1813;52.016;8.714;2023-01-05T13:51:35;-16261.94;;;-139.71;79.15
3598;BME280;1813;52.016;8.714;2023-01-05T13:54:19;-16261.94;;;-139.71;79.48
3598;BME280;1813;52.016;8.714;2023-01-05T13:56:55;-16261.94;;;-139.71;79.26
3598;BME280;1813;52.016;8.714;2023-01-05T13:59:31;-16261.94;;;-139.71;79.30